createdAt,value
2022-09-26T00:01:12.635Z,9.71
2022-09-26T00:03:39.728Z,9.72
2022-09-26T00:06:08.431Z,9.74
2022-09-26T00:08:36.755Z,9.80
2022-09-26T00:11:05.682Z,9.87
2022-09-26T00:13:36.164Z,9.91
2022-09-26T00:16:03.724Z,9.99
2022-09-26T00:18:30.316Z,10.03
2022-09-26T00:21:27.033Z,10.05
2022-09-26T00:23:54.324Z,10.05
2022-09-26T00:26:22.375Z,10.09
2022-09-26T00:28:49.104Z,9.97
2022-09-26T00:31:25.004Z,9.97
2022-09-26T00:33:51.688Z,9.91
2022-09-26T00:36:18.343Z,9.88
2022-09-26T00:38:45.602Z,9.88
2022-09-26T00:41:13.779Z,9.93
2022-09-26T00:43:55.867Z,9.94
2022-09-26T00:46:23.201Z,9.94
2022-09-26T00:49:15.809Z,9.89
2022-09-26T00:51:44.122Z,9.80
2022-09-26T00:54:11.480Z,9.72
2022-09-26T00:56:39.373Z,9.70
2022-09-26T00:59:13.563Z,9.69
2022-09-26T01:01:40.381Z,9.70
2022-09-26T01:04:07.585Z,9.73
2022-09-26T01:06:34.240Z,9.71
2022-09-26T01:09:08.659Z,9.68
2022-09-26T01:11:36.809Z,9.72
2022-09-26T01:14:05.451Z,9.72
2022-09-26T01:16:32.577Z,9.75
2022-09-26T01:18:59.282Z,9.72
2022-09-26T01:21:46.202Z,9.68
2022-09-26T01:24:21.851Z,9.69
2022-09-26T01:27:13.434Z,9.57
2022-09-26T01:30:02.054Z,9.55
2022-09-26T01:32:50.406Z,9.56
2022-09-26T01:35:38.578Z,9.55
2022-09-26T01:38:30.399Z,9.49
2022-09-26T01:41:34.160Z,9.36
2022-09-26T01:44:33.297Z,9.22
2022-09-26T01:47:24.249Z,9.24
2022-09-26T01:50:19.388Z,9.15
2022-09-26T01:52:52.942Z,9.20
2022-09-26T01:55:27.836Z,9.22
2022-09-26T01:58:05.870Z,9.28
2022-09-26T02:00:34.919Z,9.28
2022-09-26T02:03:03.558Z,9.36
2022-09-26T02:05:34.055Z,9.40
2022-09-26T02:08:11.426Z,9.27
2022-09-26T02:10:43.183Z,9.25
2022-09-26T02:13:15.470Z,9.13
2022-09-26T02:15:44.947Z,9.17
2022-09-26T02:18:16.795Z,9.15
2022-09-26T02:20:47.855Z,9.12
2022-09-26T02:23:14.775Z,9.11
2022-09-26T02:25:41.498Z,9.05
2022-09-26T02:28:08.086Z,9.01
2022-09-26T02:30:35.583Z,8.91
2022-09-26T02:33:02.353Z,9.02
2022-09-26T02:35:48.086Z,9.01
2022-09-26T02:38:14.567Z,9.01
2022-09-26T02:40:51.379Z,9.01
2022-09-26T02:43:47.826Z,9.04
2022-09-26T02:46:38.456Z,9.06
2022-09-26T02:49:37.353Z,9.05
2022-09-26T02:52:19.778Z,8.99
2022-09-26T02:55:06.245Z,8.98
2022-09-26T02:57:53.079Z,8.96
2022-09-26T03:00:25.758Z,8.99
2022-09-26T03:03:19.549Z,8.95
2022-09-26T03:05:46.543Z,8.95
2022-09-26T03:08:19.843Z,8.98
2022-09-26T03:10:47.381Z,9.00
2022-09-26T03:13:16.381Z,9.01
2022-09-26T03:15:47.121Z,9.00
2022-09-26T03:18:18.540Z,9.04
2022-09-26T03:20:45.470Z,9.01
2022-09-26T03:23:12.214Z,9.01
2022-09-26T03:25:39.122Z,9.12
2022-09-26T03:28:05.950Z,9.09
2022-09-26T03:30:32.624Z,9.08
2022-09-26T03:32:59.247Z,9.05
2022-09-26T03:35:25.911Z,9.10
2022-09-26T03:37:52.853Z,9.09
2022-09-26T03:40:19.699Z,9.03
2022-09-26T03:42:48.050Z,9.10
2022-09-26T03:45:14.802Z,9.07
2022-09-26T03:47:42.111Z,9.01
2022-09-26T03:50:09.494Z,8.85
2022-09-26T03:52:36.705Z,8.84
2022-09-26T03:55:04.684Z,8.82
2022-09-26T03:57:31.351Z,8.74
2022-09-26T03:59:58.051Z,8.80
2022-09-26T04:02:24.745Z,8.74
2022-09-26T04:04:51.461Z,8.78
2022-09-26T04:07:18.107Z,8.79
2022-09-26T04:09:44.723Z,8.78
2022-09-26T04:12:11.348Z,8.80
2022-09-26T04:14:37.999Z,8.80
2022-09-26T04:17:04.668Z,8.81
2022-09-26T04:19:31.813Z,8.79
2022-09-26T04:21:58.993Z,8.80
2022-09-26T04:24:25.968Z,8.82
2022-09-26T04:26:52.611Z,8.82
2022-09-26T04:29:19.249Z,8.79
2022-09-26T04:31:46.355Z,8.80
2022-09-26T04:34:13.223Z,8.72
2022-09-26T04:36:40.060Z,8.73
2022-09-26T04:39:06.924Z,8.59
2022-09-26T04:41:33.804Z,8.69
2022-09-26T04:44:01.152Z,8.74
2022-09-26T04:46:31.004Z,8.82
2022-09-26T04:48:59.493Z,8.81
2022-09-26T04:51:28.180Z,8.72
2022-09-26T04:53:55.299Z,8.67
2022-09-26T04:56:23.982Z,8.72
2022-09-26T04:58:50.646Z,8.73
2022-09-26T05:01:19.456Z,8.81
2022-09-26T05:03:46.229Z,8.88
2022-09-26T05:06:14.298Z,8.86
2022-09-26T05:08:43.151Z,8.83
2022-09-26T05:11:10.001Z,8.81
2022-09-26T05:13:37.972Z,8.90
2022-09-26T05:16:07.789Z,8.87
2022-09-26T05:18:34.973Z,8.87
2022-09-26T05:21:03.754Z,8.77
2022-09-26T05:23:48.839Z,8.83
2022-09-26T05:26:28.233Z,8.90
2022-09-26T05:29:06.911Z,8.84
2022-09-26T05:31:37.310Z,8.92
2022-09-26T05:34:05.197Z,8.90
2022-09-26T05:36:31.810Z,9.00
2022-09-26T05:38:58.624Z,9.06
2022-09-26T05:41:29.555Z,9.02
2022-09-26T05:43:56.603Z,9.04
2022-09-26T05:46:23.450Z,9.02
2022-09-26T05:48:50.661Z,9.07
2022-09-26T05:51:21.166Z,9.09
2022-09-26T05:53:49.438Z,9.04
2022-09-26T05:56:19.345Z,9.20
2022-09-26T05:58:46.323Z,9.23
2022-09-26T06:01:17.498Z,9.40
2022-09-26T06:03:46.581Z,9.56
2022-09-26T06:06:15.343Z,9.66
2022-09-26T06:08:42.606Z,9.62
2022-09-26T06:11:12.948Z,9.62
2022-09-26T06:13:40.745Z,9.84
2022-09-26T06:16:10.148Z,9.91
2022-09-26T06:18:37.608Z,9.91
2022-09-26T06:21:06.005Z,9.78
2022-09-26T06:23:34.349Z,9.79
2022-09-26T06:26:06.855Z,9.69
2022-09-26T06:28:33.455Z,9.69
2022-09-26T06:31:03.147Z,9.74
2022-09-26T06:33:33.241Z,9.58
2022-09-26T06:36:05.195Z,9.55
2022-09-26T06:38:31.915Z,9.73
2022-09-26T06:40:58.783Z,9.73
2022-09-26T06:43:25.801Z,9.58
2022-09-26T06:45:53.354Z,9.79
2022-09-26T06:48:24.499Z,10.02
2022-09-26T06:50:57.192Z,9.95
2022-09-26T06:53:23.819Z,10.00
2022-09-26T06:55:50.478Z,10.01
2022-09-26T06:58:17.541Z,10.01
2022-09-26T07:00:44.472Z,9.94
2022-09-26T07:03:12.082Z,10.01
2022-09-26T07:05:39.922Z,10.01
2022-09-26T07:08:07.114Z,9.98
2022-09-26T07:11:45.951Z,9.48
2022-09-26T07:14:02.549Z,10.03
2022-09-26T07:16:29.825Z,10.10
2022-09-26T07:18:56.755Z,10.07
2022-09-26T07:21:23.848Z,10.21
2022-09-26T07:23:50.474Z,10.20
2022-09-26T07:26:17.184Z,10.26
2022-09-26T07:28:44.836Z,10.12
2022-09-26T07:31:11.563Z,10.25
2022-09-26T07:33:40.247Z,10.31
2022-09-26T07:36:08.615Z,10.36
2022-09-26T07:38:38.238Z,10.38
2022-09-26T07:41:04.992Z,10.45
2022-09-26T07:46:37.970Z,10.43
2022-09-26T07:49:22.846Z,10.57
2022-09-26T07:51:49.740Z,10.44
2022-09-26T07:54:18.022Z,10.67
2022-09-26T07:56:45.078Z,10.78
2022-09-26T07:59:12.692Z,11.01
2022-09-26T08:01:40.836Z,11.14
2022-09-26T08:04:07.481Z,11.51
2022-09-26T08:06:35.300Z,11.20
2022-09-26T08:09:02.024Z,11.47
2022-09-26T08:11:28.858Z,11.82
2022-09-26T08:13:55.602Z,11.71
2022-09-26T08:16:25.379Z,11.75
2022-09-26T08:18:53.028Z,11.69
2022-09-26T08:21:20.286Z,11.75
2022-09-26T08:23:47.013Z,11.95
2022-09-26T08:26:14.088Z,12.03
2022-09-26T08:28:40.735Z,12.08
2022-09-26T08:31:08.341Z,12.04
2022-09-26T08:33:36.318Z,12.27
2022-09-26T08:36:07.903Z,12.25
2022-09-26T08:38:35.568Z,12.19
2022-09-26T08:41:32.726Z,12.38
2022-09-26T08:44:30.434Z,12.42
2022-09-26T08:47:02.404Z,12.64
2022-09-26T08:49:57.061Z,12.57
2022-09-26T08:52:30.953Z,12.69
2022-09-26T08:54:59.944Z,12.64
2022-09-26T08:57:49.518Z,12.99
2022-09-26T09:00:19.292Z,13.33
2022-09-26T09:03:04.289Z,13.56
2022-09-26T09:06:05.007Z,13.68
2022-09-26T09:08:44.182Z,13.76
2022-09-26T09:11:32.677Z,13.72
2022-09-26T09:14:36.856Z,13.20
2022-09-26T09:17:06.153Z,13.18
2022-09-26T09:19:48.773Z,13.70
2022-09-26T09:22:40.976Z,13.83
2022-09-26T09:25:29.361Z,13.61
2022-09-26T09:28:15.720Z,13.53
2022-09-26T09:30:51.753Z,13.55
2022-09-26T09:33:25.229Z,13.66
2022-09-26T09:35:51.831Z,13.64
2022-09-26T09:38:21.103Z,13.81
2022-09-26T09:41:00.095Z,14.07
2022-09-26T09:43:52.057Z,14.03
2022-09-26T09:46:30.319Z,14.27
2022-09-26T09:49:11.013Z,14.57
2022-09-26T09:51:39.447Z,14.86
2022-09-26T09:54:19.861Z,14.96
2022-09-26T09:57:23.216Z,15.45
2022-09-26T10:00:10.203Z,15.75
2022-09-26T10:03:02.337Z,14.99
2022-09-26T10:06:00.931Z,15.25
2022-09-26T10:08:33.058Z,15.16
2022-09-26T10:11:13.062Z,15.59
2022-09-26T10:13:42.779Z,15.74
2022-09-26T10:16:12.115Z,16.16
2022-09-26T10:19:00.920Z,16.30
2022-09-26T10:21:37.350Z,16.44
2022-09-26T10:24:04.937Z,16.28
2022-09-26T10:26:35.344Z,16.44
2022-09-26T10:29:08.339Z,16.94
2022-09-26T10:31:42.381Z,16.29
2022-09-26T10:34:37.412Z,15.64
2022-09-26T10:37:25.174Z,16.01
2022-09-26T10:40:12.526Z,16.17
2022-09-26T10:42:39.383Z,16.34
2022-09-26T10:45:20.406Z,15.86
2022-09-26T10:47:51.973Z,16.06
2022-09-26T10:50:23.420Z,15.90
2022-09-26T10:53:07.808Z,16.45
2022-09-26T10:55:57.562Z,16.85
2022-09-26T10:58:28.158Z,16.65
2022-09-26T11:00:55.267Z,16.66
2022-09-26T11:03:24.767Z,16.90
2022-09-26T11:05:57.491Z,16.97
2022-09-26T11:08:32.335Z,16.60
2022-09-26T11:11:04.206Z,16.52
2022-09-26T11:13:40.287Z,17.06
2022-09-26T11:16:13.507Z,17.52
2022-09-26T11:18:48.640Z,18.02
2022-09-26T11:21:28.862Z,18.08
2022-09-26T11:24:24.062Z,18.35
2022-09-26T11:26:59.768Z,18.19
2022-09-26T11:29:41.892Z,17.99
2022-09-26T11:32:19.105Z,17.35
2022-09-26T11:34:46.231Z,17.19
2022-09-26T11:37:36.620Z,16.90
2022-09-26T11:40:22.851Z,16.84
2022-09-26T11:43:25.063Z,16.91
2022-09-26T11:46:04.655Z,16.88
2022-09-26T11:49:11.149Z,17.11
2022-09-26T11:52:14.661Z,16.72
2022-09-26T11:55:32.329Z,16.64
2022-09-26T11:58:20.600Z,16.63
2022-09-26T12:01:17.020Z,16.58
2022-09-26T12:03:50.248Z,16.59
2022-09-26T12:06:25.859Z,16.50
2022-09-26T12:09:07.855Z,16.63
2022-09-26T12:11:55.727Z,16.59
2022-09-26T12:14:54.476Z,16.60
2022-09-26T12:17:42.908Z,16.95
2022-09-26T12:20:24.720Z,17.47
2022-09-26T12:23:10.281Z,17.60
2022-09-26T12:25:46.089Z,17.65
2022-09-26T12:28:34.347Z,17.37
2022-09-26T12:31:27.213Z,17.77
2022-09-26T12:33:59.860Z,17.43
2022-09-26T12:36:26.406Z,17.29
2022-09-26T12:39:21.250Z,17.77
2022-09-26T12:42:26.637Z,18.17
2022-09-26T12:45:27.259Z,18.14
2022-09-26T12:48:12.638Z,18.10
2022-09-26T12:50:59.382Z,17.94
2022-09-26T12:53:39.263Z,17.57
2022-09-26T12:56:11.151Z,17.35
2022-09-26T12:58:57.600Z,17.11
2022-09-26T13:01:37.747Z,17.20
2022-09-26T13:04:38.298Z,16.93
2022-09-26T13:07:31.116Z,17.32
2022-09-26T13:10:03.487Z,16.60
2022-09-26T13:12:42.545Z,17.26
2022-09-26T13:15:31.479Z,16.79
2022-09-26T13:18:24.313Z,16.62
2022-09-26T13:20:59.877Z,16.74
2022-09-26T13:23:35.093Z,16.89
2022-09-26T13:26:14.304Z,16.45
2022-09-26T13:29:00.484Z,16.04
2022-09-26T13:31:48.578Z,15.62
2022-09-26T13:34:20.356Z,15.55
2022-09-26T13:36:47.675Z,15.41
2022-09-26T13:39:29.447Z,15.47
2022-09-26T13:42:10.425Z,15.56
2022-09-26T13:44:48.167Z,15.48
2022-09-26T13:47:50.284Z,15.43
2022-09-26T13:50:25.932Z,15.29
2022-09-26T13:52:55.354Z,15.21
2022-09-26T13:55:22.641Z,15.11
2022-09-26T13:58:06.886Z,15.39
2022-09-26T14:00:40.625Z,15.31
2022-09-26T14:03:10.082Z,15.51
2022-09-26T14:05:43.421Z,15.13
2022-09-26T14:09:16.274Z,15.31
2022-09-26T14:11:51.410Z,15.58
2022-09-26T14:14:37.789Z,15.45
2022-09-26T14:17:42.346Z,15.34
2022-09-26T14:20:20.143Z,15.40
2022-09-26T14:22:51.508Z,15.33
2022-09-26T14:25:46.313Z,15.03
2022-09-26T14:28:32.169Z,14.93
2022-09-26T14:31:25.498Z,14.86
2022-09-26T14:34:16.835Z,14.90
2022-09-26T14:36:47.204Z,14.73
2022-09-26T14:39:33.656Z,14.80
2022-09-26T14:42:44.036Z,14.83
2022-09-26T14:45:16.769Z,14.71
2022-09-26T14:47:53.081Z,14.51
2022-09-26T14:50:22.439Z,14.43
2022-09-26T14:52:58.463Z,14.42
2022-09-26T14:55:26.275Z,13.86
2022-09-26T14:57:55.916Z,13.84
2022-09-26T15:00:43.534Z,14.41
2022-09-26T15:03:15.232Z,14.53
2022-09-26T15:05:42.934Z,14.46
2022-09-26T15:08:30.301Z,14.50
2022-09-26T15:10:58.431Z,14.50
2022-09-26T15:13:38.586Z,14.49
2022-09-26T15:16:34.699Z,14.47
2022-09-26T15:19:21.778Z,14.24
2022-09-26T15:22:15.534Z,14.12
2022-09-26T15:24:42.273Z,13.96
2022-09-26T15:27:11.769Z,13.99
2022-09-26T15:29:48.353Z,13.98
2022-09-26T15:32:27.383Z,13.96
2022-09-26T15:34:54.999Z,13.95
2022-09-26T15:37:30.127Z,14.05
2022-09-26T15:39:56.884Z,14.03
2022-09-26T15:42:45.031Z,14.04
2022-09-26T15:45:33.699Z,14.08
2022-09-26T15:48:01.476Z,14.11
2022-09-26T15:50:43.318Z,14.08
2022-09-26T15:53:37.426Z,14.07
2022-09-26T15:56:43.488Z,14.02
2022-09-26T15:59:29.422Z,14.03
2022-09-26T16:01:56.538Z,14.08
2022-09-26T16:04:28.205Z,14.09
2022-09-26T16:06:59.271Z,14.11
2022-09-26T16:09:25.884Z,14.10
2022-09-26T16:11:57.712Z,14.11
2022-09-26T16:14:41.510Z,14.07
2022-09-26T16:17:23.820Z,14.03
2022-09-26T16:19:57.361Z,14.04
2022-09-26T16:22:27.010Z,14.03
2022-09-26T16:24:53.777Z,14.02
2022-09-26T16:27:26.298Z,13.95
2022-09-26T16:29:53.426Z,13.89
2022-09-26T16:32:21.399Z,14.00
2022-09-26T16:34:49.023Z,13.98
2022-09-26T16:37:25.000Z,13.94
2022-09-26T16:39:59.642Z,13.97
2022-09-26T16:42:31.305Z,13.93
2022-09-26T16:44:59.142Z,13.93
2022-09-26T16:47:31.699Z,13.89
2022-09-26T16:50:26.670Z,13.86
2022-09-26T16:52:54.281Z,13.79
2022-09-26T16:55:21.567Z,13.81
2022-09-26T16:57:53.439Z,13.76
2022-09-26T17:00:46.043Z,13.72
2022-09-26T17:03:27.405Z,13.59
2022-09-26T17:05:55.809Z,13.59
2022-09-26T17:08:23.648Z,13.59
2022-09-26T17:10:50.323Z,13.48
2022-09-26T17:13:22.754Z,13.46
2022-09-26T17:15:53.037Z,13.39
2022-09-26T17:18:23.189Z,13.29
2022-09-26T17:20:50.274Z,13.32
2022-09-26T17:23:38.907Z,13.28
2022-09-26T17:26:06.331Z,13.23
2022-09-26T17:28:46.017Z,13.22
2022-09-26T17:31:20.983Z,13.16
2022-09-26T17:33:54.000Z,13.16
2022-09-26T17:36:25.839Z,13.15
2022-09-26T17:38:53.533Z,13.14
2022-09-26T17:41:20.419Z,13.11
2022-09-26T17:43:47.025Z,13.05
2022-09-26T17:46:16.005Z,12.99
2022-09-26T17:48:43.734Z,12.98
2022-09-26T17:51:14.260Z,12.88
2022-09-26T17:53:50.841Z,12.91
2022-09-26T17:56:20.682Z,12.85
2022-09-26T17:58:48.344Z,12.79
2022-09-26T18:01:26.042Z,12.62
2022-09-26T18:04:00.581Z,12.49
2022-09-26T18:06:31.521Z,12.59
2022-09-26T18:09:02.018Z,12.37
2022-09-26T18:11:29.351Z,12.55
2022-09-26T18:13:56.984Z,12.37
2022-09-26T18:16:24.883Z,12.41
2022-09-26T18:18:51.605Z,12.31
2022-09-26T18:21:20.029Z,12.38
2022-09-26T18:23:58.207Z,12.31
2022-09-26T18:26:47.356Z,12.23
2022-09-26T18:29:16.876Z,12.13
2022-09-26T18:31:45.735Z,12.05
2022-09-26T18:34:16.499Z,11.96
2022-09-26T18:37:02.740Z,11.81
2022-09-26T18:39:30.674Z,11.39
2022-09-26T18:42:06.086Z,11.80
2022-09-26T18:44:35.230Z,11.69
2022-09-26T18:47:03.989Z,11.65
2022-09-26T18:49:32.705Z,11.57
2022-09-26T18:52:00.126Z,11.53
2022-09-26T18:54:30.299Z,11.41
2022-09-26T18:57:15.370Z,11.47
2022-09-26T18:59:45.475Z,11.37
2022-09-26T19:02:24.615Z,11.35
2022-09-26T19:04:52.733Z,11.29
2022-09-26T19:07:21.432Z,11.06
2022-09-26T19:09:48.741Z,11.25
2022-09-26T19:12:17.129Z,11.28
2022-09-26T19:14:44.250Z,11.24
2022-09-26T19:17:11.707Z,11.28
2022-09-26T19:19:38.664Z,11.34
2022-09-26T19:22:10.451Z,11.22
2022-09-26T19:24:59.531Z,11.38
2022-09-26T19:28:01.562Z,11.36
2022-09-26T19:30:28.329Z,11.35
2022-09-26T19:32:56.601Z,11.42
2022-09-26T19:35:34.991Z,11.46
2022-09-26T19:38:04.650Z,11.55
2022-09-26T19:40:31.720Z,11.46
2022-09-26T19:42:58.865Z,11.46
2022-09-26T19:45:26.545Z,11.46
2022-09-26T19:47:54.612Z,11.54
2022-09-26T19:50:23.248Z,11.49
2022-09-26T19:52:51.770Z,11.52
2022-09-26T19:55:26.609Z,11.45
2022-09-26T19:57:54.368Z,11.60
2022-09-26T20:00:21.071Z,11.55
2022-09-26T20:02:51.428Z,11.55
2022-09-26T20:05:24.026Z,11.58
2022-09-26T20:07:51.059Z,11.55
2022-09-26T20:10:25.365Z,11.59
2022-09-26T20:12:52.428Z,11.53
2022-09-26T20:15:22.134Z,11.56
2022-09-26T20:17:49.393Z,11.57
2022-09-26T20:20:17.912Z,11.59
2022-09-26T20:22:45.228Z,11.57
2022-09-26T20:25:38.157Z,11.58
2022-09-26T20:28:04.854Z,11.66
2022-09-26T20:30:50.160Z,11.68
2022-09-26T20:33:17.367Z,11.63
2022-09-26T20:35:45.908Z,11.66
2022-09-26T20:38:35.819Z,11.63
2022-09-26T20:41:13.091Z,11.54
2022-09-26T20:43:40.704Z,11.51
2022-09-26T20:46:09.468Z,11.53
2022-09-26T20:48:36.946Z,11.57
2022-09-26T20:51:05.617Z,11.52
2022-09-26T20:53:32.282Z,11.54
2022-09-26T20:55:59.007Z,11.29
2022-09-26T20:58:25.718Z,11.34
2022-09-26T21:00:53.309Z,11.39
2022-09-26T21:03:25.175Z,11.33
2022-09-26T21:06:00.749Z,11.35
2022-09-26T21:08:29.042Z,11.35
2022-09-26T21:10:56.508Z,11.32
2022-09-26T21:13:23.784Z,11.30
2022-09-26T21:15:51.687Z,11.28
2022-09-26T21:18:27.380Z,11.27
2022-09-26T21:20:54.716Z,11.27
2022-09-26T21:23:22.578Z,11.32
2022-09-26T21:25:49.304Z,11.32
2022-09-26T21:28:22.824Z,11.40
2022-09-26T21:30:49.982Z,11.38
2022-09-26T21:33:17.034Z,11.47
2022-09-26T21:35:43.778Z,11.35
2022-09-26T21:38:10.782Z,11.46
2022-09-26T21:40:39.112Z,11.39
2022-09-26T21:43:14.816Z,11.41
2022-09-26T21:45:45.869Z,11.41
2022-09-26T21:48:13.688Z,11.40
2022-09-26T21:50:43.996Z,11.39
2022-09-26T21:53:16.572Z,11.41
2022-09-26T21:55:45.153Z,11.35
2022-09-26T21:58:15.944Z,11.30
2022-09-26T22:00:42.702Z,11.37
2022-09-26T22:03:09.716Z,11.26
2022-09-26T22:05:36.438Z,11.27
2022-09-26T22:08:03.241Z,11.35
2022-09-26T22:10:29.908Z,11.37
2022-09-26T22:12:56.647Z,11.35
2022-09-26T22:15:23.352Z,11.32
2022-09-26T22:17:50.096Z,11.27
2022-09-26T22:20:17.092Z,11.30
2022-09-26T22:22:43.739Z,11.18
2022-09-26T22:25:10.518Z,11.24
2022-09-26T22:27:37.306Z,11.07
2022-09-26T22:30:04.923Z,11.21
2022-09-26T22:32:31.760Z,11.20
2022-09-26T22:34:58.370Z,11.19
2022-09-26T22:37:25.085Z,11.14
2022-09-26T22:39:51.831Z,11.06
2022-09-26T22:42:18.526Z,10.98
2022-09-26T22:44:45.369Z,11.06
2022-09-26T22:47:12.174Z,11.07
2022-09-26T22:49:38.845Z,10.97
2022-09-26T22:52:05.502Z,11.03
2022-09-26T22:54:32.185Z,10.92
2022-09-26T22:56:58.891Z,10.97
2022-09-26T22:59:25.769Z,10.92
2022-09-26T23:01:52.973Z,10.88
2022-09-26T23:04:19.710Z,10.79
2022-09-26T23:06:46.334Z,10.75
2022-09-26T23:09:13.118Z,10.81
2022-09-26T23:11:40.979Z,10.81
2022-09-26T23:14:07.695Z,10.80
2022-09-26T23:16:34.772Z,10.78
2022-09-26T23:19:01.585Z,10.68
2022-09-26T23:21:28.357Z,10.63
2022-09-26T23:23:56.396Z,10.55
2022-09-26T23:26:25.383Z,10.70
2022-09-26T23:28:53.162Z,10.63
2022-09-26T23:31:20.555Z,10.68
2022-09-26T23:33:47.308Z,10.42
2022-09-26T23:36:14.147Z,10.57
2022-09-26T23:38:41.089Z,10.65
2022-09-26T23:41:10.095Z,10.62
2022-09-26T23:43:36.948Z,10.56
2022-09-26T23:46:03.748Z,10.60
2022-09-26T23:48:30.467Z,10.56
2022-09-26T23:51:00.313Z,10.56
2022-09-26T23:53:27.198Z,10.58
2022-09-26T23:55:53.960Z,10.54
2022-09-26T23:58:20.672Z,10.56
